Time;durP1;ratioP1;P1;durP2;ratioP2;P2;SDS_P1;SDS_P2;PMS_P1;PMS_P2;Temp;Humidity;BMP_temperature;BMP_pressure;BME280_temperature;BME280_humidity;BME280_pressure;Samples;Min_cycle;Max_cycle;Signal;HPM_P1;HPM_P2
2022/10/21 00:02:04;;;;;;;;;;;;;;;26.42;29.79;101843.91;5058595;28;1139;-40
2022/10/21 00:04:30;;;;;;;;;;;;;;;26.83;29.45;101850.69;5057436;28;1961;-39
2022/10/21 00:06:55;;;;;;;;;;;;;;;26.85;29.45;101849.56;5058254;28;1222;-39
2022/10/21 00:09:21;;;;;;;;;;;;;;;26.90;28.91;101852.66;5057858;28;1176;-39
2022/10/21 00:11:46;;;;;;;;;;;;;;;26.46;29.83;101853.38;5058017;28;953;-39
2022/10/21 00:14:11;;;;;;;;;;;;;;;26.67;29.80;101851.41;5058174;28;1367;-41
2022/10/21 00:16:36;;;;;;;;;;;;;;;26.75;29.53;101841.53;5057844;28;1194;-39
2022/10/21 00:19:02;;;;;;;;;;;;;;;27.01;29.13;101848.88;5057818;28;1120;-41
2022/10/21 00:21:27;;;;;;;;;;;;;;;26.87;29.22;101842.16;5057733;28;1171;-41
2022/10/21 00:23:52;;;;;;;;;;;;;;;26.35;29.93;101837.41;5057330;28;1918;-39
2022/10/21 00:26:18;;;;;;;;;;;;;;;26.97;29.12;101838.53;5040270;28;1184;-40
2022/10/21 00:28:43;;;;;;;;;;;;;;;27.08;29.08;101838.31;5057370;28;1202;-40
2022/10/21 00:31:09;;;;;;;;;;;;;;;26.94;29.15;101841.53;5058065;28;1211;-39
2022/10/21 00:33:34;;;;;;;;;;;;;;;26.34;29.78;101841.13;5059832;28;1223;-41
2022/10/21 00:36:02;;;;;;;;;;;;;;;26.75;29.69;101848.78;5077625;28;953;-41
2022/10/21 00:38:28;;;;;;;;;;;;;;;26.94;29.32;101845.09;5062856;28;1229;-40
2022/10/21 00:40:53;;;;;;;;;;;;;;;26.96;28.87;101845.75;5057982;28;1171;-40
2022/10/21 00:43:19;;;;;;;;;;;;;;;26.56;29.78;101841.69;5057427;28;1965;-41
2022/10/21 00:45:44;;;;;;;;;;;;;;;26.43;29.77;101837.50;5057692;28;1249;-41
2022/10/21 00:48:33;;;;;;;;;;;;;;;26.80;29.30;101838.38;5039537;28;929;-41
2022/10/21 00:51:08;;;;;;;;;;;;;;;27.04;29.38;101844.19;5051717;28;1421;-40
2022/10/21 00:53:34;;;;;;;;;;;;;;;26.78;29.40;101843.94;5057309;28;1285;-41
2022/10/21 00:56:00;;;;;;;;;;;;;;;26.24;30.18;101833.03;5039329;28;1156;-41
2022/10/21 00:58:27;;;;;;;;;;;;;;;26.75;29.21;101828.03;5057071;28;1176;-41
2022/10/21 01:00:53;;;;;;;;;;;;;;;26.80;29.38;101840.22;5056697;28;1388;-41
2022/10/21 01:03:19;;;;;;;;;;;;;;;26.96;29.20;101837.66;5057220;28;1967;-41
2022/10/21 01:05:44;;;;;;;;;;;;;;;26.71;29.22;101836.59;5039159;28;1168;-40
2022/10/21 01:08:09;;;;;;;;;;;;;;;26.39;29.80;101831.53;5057222;28;1160;-41
2022/10/21 01:10:36;;;;;;;;;;;;;;;26.78;29.34;101829.56;5056428;28;1163;-41
2022/10/21 01:13:10;;;;;;;;;;;;;;;26.91;29.19;101823.78;5039309;28;1276;-41
2022/10/21 01:15:51;;;;;;;;;;;;;;;26.89;29.28;101825.81;5056729;28;1175;-41
2022/10/21 01:18:16;;;;;;;;;;;;;;;26.32;30.06;101830.44;5056578;28;1140;-41
2022/10/21 01:20:47;;;;;;;;;;;;;;;26.78;29.70;101824.16;5056620;28;1104;-41
2022/10/21 01:23:19;;;;;;;;;;;;;;;26.85;29.70;101829.81;5059785;28;1917;-41
2022/10/21 01:26:03;;;;;;;;;;;;;;;26.85;29.26;101827.09;5064982;28;1246;-41
2022/10/21 01:28:34;;;;;;;;;;;;;;;26.44;30.08;101827.56;5056553;28;1124;-41
2022/10/21 01:31:08;;;;;;;;;;;;;;;26.63;29.79;101829.25;5056481;28;1221;-40
2022/10/21 01:33:38;;;;;;;;;;;;;;;26.76;29.42;101834.28;5058586;28;1128;-40
2022/10/21 01:36:16;;;;;;;;;;;;;;;26.99;29.37;101834.66;5076097;28;973;-42
2022/10/21 01:38:42;;;;;;;;;;;;;;;26.69;29.32;101827.81;5060352;28;1139;-41
2022/10/21 01:41:11;;;;;;;;;;;;;;;26.33;29.98;101832.16;5038625;28;1120;-41
2022/10/21 01:43:59;;;;;;;;;;;;;;;26.71;29.46;101826.63;5056483;28;1969;-41
2022/10/21 01:46:25;;;;;;;;;;;;;;;26.83;29.36;101832.66;5027528;28;1285;-41
2022/10/21 01:48:54;;;;;;;;;;;;;;;26.93;29.18;101826.31;5071160;28;1164;-41
2022/10/21 01:51:19;;;;;;;;;;;;;;;26.48;29.92;101835.19;5049875;28;1128;-41
2022/10/21 01:53:47;;;;;;;;;;;;;;;26.71;29.97;101837.44;5038627;28;1176;-41
2022/10/21 01:56:12;;;;;;;;;;;;;;;26.71;29.84;101829.34;5038223;28;1238;-41
2022/10/21 01:58:38;;;;;;;;;;;;;;;27.02;29.24;101844.34;5038801;28;1203;-41
2022/10/21 02:01:03;;;;;;;;;;;;;;;26.82;29.48;101836.38;5054127;28;1113;-41
2022/10/21 02:03:30;;;;;;;;;;;;;;;26.38;30.01;101845.19;5047772;28;1995;-41
2022/10/21 02:05:55;;;;;;;;;;;;;;;26.68;29.85;101844.97;5038136;28;1192;-41
2022/10/21 02:08:21;;;;;;;;;;;;;;;26.75;29.39;101849.63;5055888;28;1246;-42
2022/10/21 02:10:47;;;;;;;;;;;;;;;27.02;29.05;101857.84;5038236;28;1220;-42
2022/10/21 02:13:13;;;;;;;;;;;;;;;26.66;29.54;101853.25;5054317;28;1179;-41
2022/10/21 02:15:38;;;;;;;;;;;;;;;26.52;29.45;101852.78;5045670;28;1191;-41
2022/10/21 02:18:07;;;;;;;;;;;;;;;26.84;29.15;101855.94;5069970;28;1223;-41
2022/10/21 02:20:34;;;;;;;;;;;;;;;27.03;29.21;101851.44;5055963;28;1124;-41
2022/10/21 02:23:00;;;;;;;;;;;;;;;26.84;29.09;101849.72;5056038;28;1906;-42
2022/10/21 02:25:26;;;;;;;;;;;;;;;26.32;30.15;101853.84;5038216;28;922;-41
2022/10/21 02:27:51;;;;;;;;;;;;;;;26.71;29.60;101855.50;5058130;28;1171;-42
2022/10/21 02:30:17;;;;;;;;;;;;;;;26.81;29.24;101860.81;5044867;28;1152;-41
2022/10/21 02:33:01;;;;;;;;;;;;;;;26.92;29.16;101854.34;5062306;28;1266;-41
2022/10/21 02:35:26;;;;;;;;;;;;;;;26.51;29.66;101855.59;5062527;28;1133;-44
2022/10/21 02:38:02;;;;;;;;;;;;;;;26.53;29.49;101857.16;5062480;28;1120;-40
2022/10/21 02:40:44;;;;;;;;;;;;;;;26.83;29.52;101862.34;5044771;28;1164;-40
2022/10/21 02:43:11;;;;;;;;;;;;;;;27.02;28.85;101855.13;5061976;28;1898;-40
2022/10/21 02:45:37;;;;;;;;;;;;;;;27.03;28.88;101856.81;5044428;28;1172;-40
2022/10/21 02:48:02;;;;;;;;;;;;;;;26.46;29.63;101860.63;5044586;28;1227;-40
2022/10/21 02:50:28;;;;;;;;;;;;;;;26.76;29.33;101856.72;5062439;28;1183;-40
2022/10/21 02:52:53;;;;;;;;;;;;;;;26.93;29.22;101864.13;5062178;28;1156;-39
2022/10/21 02:55:18;;;;;;;;;;;;;;;27.17;28.67;101868.09;5044157;28;1152;-40
2022/10/21 02:57:44;;;;;;;;;;;;;;;26.83;29.39;101861.50;5061946;28;1152;-40
2022/10/21 03:00:09;;;;;;;;;;;;;;;26.31;30.01;101871.06;5062073;28;1152;-40
2022/10/21 03:02:34;;;;;;;;;;;;;;;26.75;29.49;101868.53;5062538;28;1108;-40
2022/10/21 03:05:00;;;;;;;;;;;;;;;26.95;29.32;101871.06;5062280;28;1905;-41
2022/10/21 03:07:25;;;;;;;;;;;;;;;26.86;29.17;101872.00;5062281;28;1143;-40
2022/10/21 03:09:50;;;;;;;;;;;;;;;26.36;30.05;101868.78;5067429;28;1151;-39
2022/10/21 03:12:16;;;;;;;;;;;;;;;26.54;29.09;101868.81;5064304;28;1380;-42
2022/10/21 03:14:41;;;;;;;;;;;;;;;26.28;26.86;101864.09;5074256;28;1131;-41
2022/10/21 03:17:06;;;;;;;;;;;;;;;26.18;27.12;101864.16;5062600;28;1239;-44
2022/10/21 03:19:31;;;;;;;;;;;;;;;26.58;25.53;101864.81;5062909;28;1198;-41
2022/10/21 03:21:57;;;;;;;;;;;;;;;26.60;24.19;101867.34;5079826;28;1163;-42
2022/10/21 03:24:22;;;;;;;;;;;;;;;25.58;21.61;101860.78;5066502;28;1910;-42
2022/10/21 03:26:47;;;;;;;;;;;;;;;24.83;17.75;101856.84;5078236;28;2393;-41
2022/10/21 03:29:13;;;;;;;;;;;;;;;25.63;20.28;101863.94;5072372;28;1772;-40
2022/10/21 03:31:38;;;;;;;;;;;;;;;26.45;19.82;101861.63;5070331;28;2033;-40
2022/10/21 03:34:03;;;;;;;;;;;;;;;25.92;22.36;101862.97;5068789;28;1959;-41
2022/10/21 03:36:28;;;;;;;;;;;;;;;25.73;23.83;101863.91;5070611;28;2118;-40
2022/10/21 03:38:54;;;;;;;;;;;;;;;26.49;22.00;101869.25;5069188;28;2046;-40
2022/10/21 03:41:19;;;;;;;;;;;;;;;26.83;22.33;101880.41;5064657;28;2016;-41
2022/10/21 03:43:44;;;;;;;;;;;;;;;26.22;20.68;101873.66;5075007;28;1943;-36
2022/10/21 03:46:10;;;;;;;;;;;;;;;24.62;18.95;101865.03;5058242;28;1136;-37
2022/10/21 03:48:35;;;;;;;;;;;;;;;24.24;19.01;101854.03;5058129;28;1131;-37
2022/10/21 03:51:00;;;;;;;;;;;;;;;24.78;18.65;101862.66;5061619;28;1080;-37
2022/10/21 03:53:25;;;;;;;;;;;;;;;25.98;17.47;101866.94;5058992;28;1171;-40
2022/10/21 03:55:51;;;;;;;;;;;;;;;26.89;17.82;101867.13;5068644;28;1515;-40
2022/10/21 03:58:16;;;;;;;;;;;;;;;26.74;19.08;101866.00;5065684;28;1112;-40
2022/10/21 04:00:41;;;;;;;;;;;;;;;26.76;21.88;101867.53;5058387;28;1148;-40
2022/10/21 04:03:07;;;;;;;;;;;;;;;26.86;21.20;101874.72;5069195;28;1897;-40
2022/10/21 04:05:32;;;;;;;;;;;;;;;26.71;21.05;101875.22;5076416;28;1230;-39
2022/10/21 04:07:57;;;;;;;;;;;;;;;26.15;21.84;101877.94;5068552;28;1171;-39
2022/10/21 04:10:23;;;;;;;;;;;;;;;26.35;22.50;101885.97;5057554;28;1287;-39
2022/10/21 04:12:48;;;;;;;;;;;;;;;26.47;22.82;101876.66;5064635;28;1745;-39
2022/10/21 04:15:13;;;;;;;;;;;;;;;26.75;22.54;101879.34;5057407;28;1247;-39
2022/10/21 04:17:39;;;;;;;;;;;;;;;26.62;23.39;101879.72;5057605;28;1255;-39
2022/10/21 04:20:04;;;;;;;;;;;;;;;26.17;24.14;101876.78;5058068;28;1167;-39
2022/10/21 04:22:30;;;;;;;;;;;;;;;26.26;23.39;101880.44;5058058;28;1136;-35
2022/10/21 04:24:55;;;;;;;;;;;;;;;25.98;22.54;101883.13;5068064;28;1910;-36
2022/10/21 04:27:20;;;;;;;;;;;;;;;26.15;21.55;101883.31;5057956;28;1104;-35
2022/10/21 04:29:46;;;;;;;;;;;;;;;26.37;20.23;101882.13;5057599;28;1204;-36
2022/10/21 04:32:11;;;;;;;;;;;;;;;26.33;19.77;101886.09;5063808;28;954;-35
2022/10/21 04:34:36;;;;;;;;;;;;;;;25.70;17.75;101877.66;5077795;28;1123;-36
2022/10/21 04:37:02;;;;;;;;;;;;;;;25.50;20.32;101885.78;5072977;28;1108;-36
2022/10/21 04:39:27;;;;;;;;;;;;;;;26.29;19.78;101885.53;5061980;28;1092;-37
2022/10/21 04:41:54;;;;;;;;;;;;;;;26.24;19.23;101893.22;5063328;28;1841;-36
2022/10/21 04:44:20;;;;;;;;;;;;;;;26.40;19.24;101902.53;5077502;28;1906;-36
2022/10/21 04:46:45;;;;;;;;;;;;;;;26.11;18.94;101903.50;5057942;28;1131;-36
2022/10/21 04:49:10;;;;;;;;;;;;;;;26.01;19.17;101899.00;5057394;28;1096;-35
2022/10/21 04:51:35;;;;;;;;;;;;;;;25.42;18.97;101894.53;5056932;28;1088;-35
2022/10/21 04:54:01;;;;;;;;;;;;;;;25.62;20.64;101896.38;5057505;28;1124;-36
2022/10/21 04:56:26;;;;;;;;;;;;;;;26.37;19.37;101901.00;5056910;28;1159;-35
2022/10/21 04:58:51;;;;;;;;;;;;;;;26.86;18.84;101909.81;5056909;28;1060;-35
2022/10/21 05:01:16;;;;;;;;;;;;;;;26.82;18.96;101911.97;5056940;28;1160;-38
2022/10/21 05:03:42;;;;;;;;;;;;;;;27.18;19.40;101912.97;5056562;28;1973;-38
2022/10/21 05:06:07;;;;;;;;;;;;;;;26.87;21.10;101919.59;5057067;28;1207;-39
2022/10/21 05:08:32;;;;;;;;;;;;;;;26.83;21.63;101916.34;5056857;28;1116;-38
2022/10/21 05:11:01;;;;;;;;;;;;;;;26.80;22.14;101922.06;5057140;28;1128;-38
2022/10/21 05:13:29;;;;;;;;;;;;;;;26.89;22.60;101931.09;5056758;28;2492;-38
2022/10/21 05:16:01;;;;;;;;;;;;;;;27.06;22.26;101925.91;5056889;28;1132;-38
2022/10/21 05:18:27;;;;;;;;;;;;;;;26.43;23.21;101918.44;5056831;28;1104;-37
2022/10/21 05:20:52;;;;;;;;;;;;;;;26.78;22.67;101935.72;5056453;28;1120;-37
2022/10/21 05:23:17;;;;;;;;;;;;;;;26.79;23.19;101931.16;5056334;28;1910;-38
2022/10/21 05:25:43;;;;;;;;;;;;;;;26.89;23.61;101936.50;5056269;28;1116;-38
2022/10/21 05:28:08;;;;;;;;;;;;;;;26.96;24.11;101928.63;5055784;28;1124;-38
2022/10/21 05:30:33;;;;;;;;;;;;;;;26.61;24.27;101931.13;5056234;28;1276;-37
2022/10/21 05:32:59;;;;;;;;;;;;;;;26.34;24.83;101928.25;5056068;28;1108;-37
2022/10/21 05:35:24;;;;;;;;;;;;;;;26.87;24.50;101935.78;5069305;28;1139;-38
2022/10/21 05:37:49;;;;;;;;;;;;;;;26.84;24.49;101938.81;5068908;28;1112;-39
2022/10/21 05:40:15;;;;;;;;;;;;;;;26.93;24.93;101950.53;5055552;28;1159;-38
2022/10/21 05:42:40;;;;;;;;;;;;;;;26.64;24.97;101947.03;5068844;28;1856;-38
2022/10/21 05:45:06;;;;;;;;;;;;;;;26.43;25.53;101949.94;5070168;28;1902;-39
2022/10/21 05:47:31;;;;;;;;;;;;;;;26.88;25.56;101949.16;5055990;28;1183;-39
2022/10/21 05:49:56;;;;;;;;;;;;;;;26.89;25.31;101953.53;5055889;28;1147;-38
2022/10/21 05:52:21;;;;;;;;;;;;;;;27.00;25.41;101957.03;5056346;28;1160;-38
2022/10/21 05:54:47;;;;;;;;;;;;;;;27.18;25.10;101954.34;5055527;28;1321;-38
2022/10/21 05:57:12;;;;;;;;;;;;;;;27.32;25.07;101960.22;5055475;28;1317;-38
2022/10/21 05:59:37;;;;;;;;;;;;;;;27.28;25.00;101962.38;5055727;28;866;-38
2022/10/21 06:02:03;;;;;;;;;;;;;;;27.45;24.76;101967.94;5060979;28;1220;-38
2022/10/21 06:04:28;;;;;;;;;;;;;;;27.72;24.46;101972.44;5055568;28;1902;-38
2022/10/21 06:06:53;;;;;;;;;;;;;;;27.82;24.46;101976.88;5055697;28;1198;-38
2022/10/21 06:09:19;;;;;;;;;;;;;;;27.83;24.51;101967.75;5055954;28;1152;-38
2022/10/21 06:11:44;;;;;;;;;;;;;;;27.75;24.92;101971.25;5058443;28;2039;-38
2022/10/21 06:14:09;;;;;;;;;;;;;;;27.83;24.60;101968.59;5066846;28;1084;-38
2022/10/21 06:22:13;;;;;;;;;;;;;;;27.19;26.87;101972.28;5699571;22;5019;-32
2022/10/21 06:24:38;;;;;;;;;;;;;;;27.27;26.10;101968.81;4978308;28;2100;-32
2022/10/21 06:27:03;;;;;;;;;;;;;;;27.27;26.10;101968.81;4978985;28;1775;-32
2022/10/21 06:29:29;;;;;;;;;;;;;;;27.28;26.62;101964.25;4978856;28;1926;-33
2022/10/21 06:31:54;;;;;;;;;;;;;;;27.29;26.38;101968.66;4984626;28;2444;-32
2022/10/21 06:34:19;;;;;;;;;;;;;;;27.33;26.44;101960.06;4973740;28;1796;-32
2022/10/21 06:36:46;;;;;;;;;;;;;;;27.41;26.50;101961.16;4986708;28;2121;-33
2022/10/21 06:39:11;;;;;;;;;;;;;;;27.41;26.09;101966.56;4987155;28;2198;-32
2022/10/21 06:41:36;;;;;;;;;;;;;;;27.57;26.01;101963.13;4982147;28;1137;-32
2022/10/21 06:44:02;;;;;;;;;;;;;;;27.55;26.18;101960.59;4976596;28;1906;-32
2022/10/21 06:46:27;;;;;;;;;;;;;;;27.63;26.31;101970.63;4977173;28;1149;-32
2022/10/21 06:48:52;;;;;;;;;;;;;;;27.65;26.14;101965.91;4976487;28;1016;-32
2022/10/21 06:51:18;;;;;;;;;;;;;;;27.73;26.02;101963.28;4981175;28;995;-33
2022/10/21 06:53:44;;;;;;;;;;;;;;;27.70;26.33;101958.22;4976690;28;1374;-32
2022/10/21 06:56:10;;;;;;;;;;;;;;;27.80;25.95;101965.38;4984646;28;1105;-32
2022/10/21 06:58:35;;;;;;;;;;;;;;;27.79;26.07;101966.38;4983085;28;1105;-32
2022/10/21 07:01:07;;;;;;;;;;;;;;;27.83;26.12;101968.59;4976996;28;1149;-32
2022/10/21 07:03:33;;;;;;;;;;;;;;;27.87;26.03;101955.63;4976414;28;1902;-32
2022/10/21 07:05:58;;;;;;;;;;;;;;;27.87;26.05;101963.72;4976967;28;1106;-32
2022/10/21 07:08:24;;;;;;;;;;;;;;;27.88;25.97;101960.00;4976815;28;2066;-32
2022/10/21 07:10:49;;;;;;;;;;;;;;;27.80;26.04;101963.50;4977257;28;1157;-33
2022/10/21 07:13:15;;;;;;;;;;;;;;;27.62;26.67;101956.28;4976837;28;1133;-32
2022/10/21 07:15:40;;;;;;;;;;;;;;;27.59;26.62;101953.84;4978837;28;932;-32
2022/10/21 07:18:05;;;;;;;;;;;;;;;27.41;24.11;101956.59;4980290;28;1185;-32
2022/10/21 07:20:32;;;;;;;;;;;;;;;27.26;25.83;101951.72;4980126;28;1094;-33
2022/10/21 07:22:57;;;;;;;;;;;;;;;27.38;26.88;101955.06;4979720;28;1251;-32
2022/10/21 07:25:22;;;;;;;;;;;;;;;27.48;27.01;101957.66;4980387;28;1985;-33
2022/10/21 07:27:47;;;;;;;;;;;;;;;27.56;26.71;101956.06;4980643;28;868;-33
2022/10/21 07:30:13;;;;;;;;;;;;;;;27.59;26.35;101955.72;4980171;28;1144;-32
2022/10/21 07:32:38;;;;;;;;;;;;;;;27.60;26.38;101952.88;4980171;28;1185;-32
2022/10/21 07:35:04;;;;;;;;;;;;;;;27.50;26.84;101949.41;4979907;28;1204;-32
2022/10/21 07:37:29;;;;;;;;;;;;;;;27.49;26.70;101955.81;4979707;28;1876;-32
2022/10/21 07:39:55;;;;;;;;;;;;;;;27.59;26.86;101961.97;4979874;28;877;-32
2022/10/21 07:42:20;;;;;;;;;;;;;;;27.68;26.48;101954.81;4979772;28;1413;-32
2022/10/21 07:44:48;;;;;;;;;;;;;;;27.78;26.07;101959.28;4980144;28;1894;-32
2022/10/21 07:47:13;;;;;;;;;;;;;;;27.91;26.21;101953.44;4979733;28;1130;-33
2022/10/21 07:49:38;;;;;;;;;;;;;;;27.80;26.04;101960.81;4979960;28;1212;-34
2022/10/21 07:52:21;;;;;;;;;;;;;;;27.74;26.50;101961.44;4978697;28;1867;-34
2022/10/21 07:54:46;;;;;;;;;;;;;;;27.71;26.46;101959.91;4987546;28;2076;-34
2022/10/21 07:57:11;;;;;;;;;;;;;;;27.80;26.38;101954.53;4993859;28;1918;-33
2022/10/21 07:59:37;;;;;;;;;;;;;;;27.68;26.85;101949.41;4984380;28;1965;-34
2022/10/21 08:02:02;;;;;;;;;;;;;;;27.72;26.87;101953.50;4975639;28;1977;-33
2022/10/21 08:04:32;;;;;;;;;;;;;;;27.75;26.57;101950.47;4992577;28;2065;-34
2022/10/21 08:06:57;;;;;;;;;;;;;;;27.74;26.71;101948.75;4998001;28;1859;-34
2022/10/21 08:09:23;;;;;;;;;;;;;;;27.77;26.84;101944.91;4988132;28;2127;-34
2022/10/21 08:11:48;;;;;;;;;;;;;;;27.80;26.80;101947.28;4988693;28;1178;-34
2022/10/21 08:14:14;;;;;;;;;;;;;;;27.81;26.77;101948.16;4976168;28;1016;-34
2022/10/21 08:16:39;;;;;;;;;;;;;;;27.84;26.73;101945.13;4962443;28;1570;-34
2022/10/21 08:19:04;;;;;;;;;;;;;;;27.84;26.40;101948.66;4979762;28;1098;-34
2022/10/21 08:21:30;;;;;;;;;;;;;;;27.84;26.72;101939.72;4993411;28;1114;-34
2022/10/21 08:23:56;;;;;;;;;;;;;;;27.92;26.59;101942.47;4970083;28;1918;-34
2022/10/21 08:26:21;;;;;;;;;;;;;;;27.94;26.49;101935.06;4978919;28;1276;-33
2022/10/21 08:28:46;;;;;;;;;;;;;;;27.95;26.77;101942.16;4969682;28;1225;-34
2022/10/21 08:31:12;;;;;;;;;;;;;;;28.02;26.48;101936.09;4959479;28;1233;-33
2022/10/21 08:33:38;;;;;;;;;;;;;;;27.99;26.45;101938.09;4959062;28;1233;-34
2022/10/21 08:36:06;;;;;;;;;;;;;;;28.04;26.52;101934.94;4965632;28;1233;-33
2022/10/21 08:38:32;;;;;;;;;;;;;;;28.08;26.60;101940.84;4979343;28;2424;-33
2022/10/21 08:40:58;;;;;;;;;;;;;;;28.08;26.21;101925.47;4978553;28;1194;-33
2022/10/21 08:43:24;;;;;;;;;;;;;;;28.14;26.37;101940.22;4961488;28;1902;-35
2022/10/21 08:45:53;;;;;;;;;;;;;;;28.17;26.73;101949.88;4978898;28;1161;-34
2022/10/21 08:48:20;;;;;;;;;;;;;;;28.21;26.21;101943.97;4979345;28;1145;-34
2022/10/21 08:50:46;;;;;;;;;;;;;;;28.21;26.29;101935.84;4991758;28;1129;-34
2022/10/21 08:53:12;;;;;;;;;;;;;;;28.32;26.10;101933.88;4978960;28;1149;-32
2022/10/21 08:55:41;;;;;;;;;;;;;;;28.45;25.94;101931.59;4947970;28;1205;-33
2022/10/21 08:58:14;;;;;;;;;;;;;;;28.43;26.09;101928.19;4962280;28;1189;-33
2022/10/21 09:00:44;;;;;;;;;;;;;;;28.32;26.26;101940.16;4978902;28;1095;-33
2022/10/21 09:03:13;;;;;;;;;;;;;;;28.26;26.49;101937.25;4978623;28;1918;-33
2022/10/21 09:05:57;;;;;;;;;;;;;;;28.29;26.55;101939.63;4978891;28;1117;-33
2022/10/21 09:08:31;;;;;;;;;;;;;;;28.38;26.23;101922.44;4985716;28;1914;-34
2022/10/21 09:11:31;;;;;;;;;;;;;;;28.38;26.28;101919.72;4986612;28;1097;-33
2022/10/21 09:13:57;;;;;;;;;;;;;;;28.47;26.14;101924.16;4941690;29;1150;-33
2022/10/21 09:16:28;;;;;;;;;;;;;;;28.47;26.09;101920.59;4968985;28;1051;-33
2022/10/21 09:19:03;;;;;;;;;;;;;;;28.57;26.26;101928.59;4978204;28;1149;-33
2022/10/21 09:21:38;;;;;;;;;;;;;;;28.62;25.79;101931.66;4978193;28;1192;-33
2022/10/21 09:24:08;;;;;;;;;;;;;;;28.65;26.10;101914.22;4978093;28;1974;-34
2022/10/21 09:26:38;;;;;;;;;;;;;;;28.65;25.70;101920.50;4978708;28;1086;-33
2022/10/21 09:29:24;;;;;;;;;;;;;;;28.67;25.88;101920.31;4977893;28;935;-33
2022/10/21 09:31:49;;;;;;;;;;;;;;;28.72;25.93;101924.25;4977779;28;1177;-33
2022/10/21 09:34:35;;;;;;;;;;;;;;;28.75;26.00;101917.63;4978119;28;1082;-33
2022/10/21 09:37:01;;;;;;;;;;;;;;;28.77;25.77;101914.75;4977322;28;1105;-32
2022/10/21 09:39:32;;;;;;;;;;;;;;;28.83;25.88;101912.22;4960867;28;2103;-33
2022/10/21 09:41:58;;;;;;;;;;;;;;;28.84;25.82;101913.91;4961262;28;1098;-33
2022/10/21 09:44:23;;;;;;;;;;;;;;;28.89;25.68;101909.88;4960493;28;1906;-33
2022/10/21 09:46:50;;;;;;;;;;;;;;;28.93;25.90;101901.25;4977895;28;1185;-33
2022/10/21 09:49:17;;;;;;;;;;;;;;;29.03;25.71;101900.28;4960751;28;1094;-33
2022/10/21 09:51:44;;;;;;;;;;;;;;;29.08;25.54;101897.91;4960267;28;1166;-33
2022/10/21 09:54:13;;;;;;;;;;;;;;;29.19;25.13;101889.47;4960167;28;1182;-33
2022/10/21 09:56:43;;;;;;;;;;;;;;;29.26;25.29;101883.34;4976963;28;1214;-33
2022/10/21 09:59:12;;;;;;;;;;;;;;;29.21;25.34;101887.41;4958870;28;1166;-34
2022/10/21 10:01:38;;;;;;;;;;;;;;;29.36;25.09;101886.75;4956907;28;1229;-34
2022/10/21 10:04:22;;;;;;;;;;;;;;;29.43;24.80;101887.72;4957877;28;1978;-33
2022/10/21 10:06:47;;;;;;;;;;;;;;;29.45;24.98;101892.97;4969399;28;1130;-34
2022/10/21 10:09:17;;;;;;;;;;;;;;;29.93;24.55;101886.78;4987987;28;1844;-33
2022/10/21 10:11:48;;;;;;;;;;;;;;;30.42;23.89;101883.06;4971007;28;1170;-33
2022/10/21 10:14:20;;;;;;;;;;;;;;;30.71;23.36;101883.41;4979376;28;1093;-33
2022/10/21 10:16:45;;;;;;;;;;;;;;;30.90;22.95;101882.09;4960262;28;892;-33
2022/10/21 10:19:20;;;;;;;;;;;;;;;31.00;23.15;101881.00;4977409;28;1098;-33
2022/10/21 10:21:47;;;;;;;;;;;;;;;30.34;23.84;101877.69;4977382;28;1212;-33
2022/10/21 10:24:16;;;;;;;;;;;;;;;30.04;24.52;101877.44;4977414;28;1918;-33
2022/10/21 10:26:41;;;;;;;;;;;;;;;29.87;24.80;101882.94;4977520;28;1200;-33
2022/10/21 10:29:25;;;;;;;;;;;;;;;30.09;24.50;101875.06;4960116;28;991;-33
2022/10/21 10:31:54;;;;;;;;;;;;;;;30.05;24.65;101877.25;4977759;28;1113;-31
2022/10/21 10:34:23;;;;;;;;;;;;;;;30.44;24.15;101872.03;4976828;28;1134;-31
2022/10/21 10:36:48;;;;;;;;;;;;;;;30.76;23.61;101869.28;4977316;28;1106;-31
2022/10/21 10:39:18;;;;;;;;;;;;;;;30.92;23.03;101863.75;4985378;28;2037;-31
2022/10/21 10:41:44;;;;;;;;;;;;;;;31.09;23.02;101860.03;4959851;28;1087;-31
2022/10/21 10:44:22;;;;;;;;;;;;;;;31.09;22.98;101860.03;4959973;28;1963;-31
2022/10/21 10:46:51;;;;;;;;;;;;;;;31.15;22.83;101852.00;4959950;28;1145;-31
2022/10/21 10:49:23;;;;;;;;;;;;;;;31.06;22.88;101855.81;4979036;28;1122;-31
2022/10/21 10:52:02;;;;;;;;;;;;;;;31.06;22.91;101853.09;4981028;28;1121;-31
2022/10/21 10:54:27;;;;;;;;;;;;;;;29.64;18.43;101853.84;4980900;28;1205;-30
2022/10/21 10:56:52;;;;;;;;;;;;;;;29.03;17.81;101846.94;4980794;28;1110;-30
2022/10/21 10:59:27;;;;;;;;;;;;;;;28.96;17.28;101845.91;4980921;28;1188;-30
2022/10/21 11:02:07;;;;;;;;;;;;;;;28.66;17.28;101843.66;4981028;28;1146;-30
2022/10/21 11:04:34;;;;;;;;;;;;;;;28.69;16.78;101840.66;4964185;28;1967;-30
2022/10/21 11:07:02;;;;;;;;;;;;;;;28.58;16.64;101835.53;4963819;28;1115;-30
2022/10/21 11:09:27;;;;;;;;;;;;;;;28.43;16.08;101848.84;4973489;28;1849;-30
2022/10/21 11:11:54;;;;;;;;;;;;;;;28.36;16.33;101841.41;4993400;28;1255;-30
2022/10/21 11:14:20;;;;;;;;;;;;;;;28.28;16.06;101838.66;4964354;28;974;-30
2022/10/21 11:16:57;;;;;;;;;;;;;;;28.10;16.27;101838.75;4980626;28;1090;-30
2022/10/21 11:19:22;;;;;;;;;;;;;;;28.06;15.52;101835.53;4963633;28;1115;-30
2022/10/21 11:21:52;;;;;;;;;;;;;;;28.06;15.28;101840.94;4980609;28;1222;-30
2022/10/21 11:24:28;;;;;;;;;;;;;;;27.87;15.49;101847.47;4980658;28;1975;-30
2022/10/21 11:26:56;;;;;;;;;;;;;;;28.57;16.29;101825.72;4980828;28;1106;-31
2022/10/21 11:29:22;;;;;;;;;;;;;;;29.38;20.47;101835.06;4980455;28;1141;-31
2022/10/21 11:31:51;;;;;;;;;;;;;;;29.64;19.85;101829.44;4979914;28;1210;-31
2022/10/21 11:34:30;;;;;;;;;;;;;;;29.93;20.57;101833.38;4963007;28;1031;-31
2022/10/21 11:36:58;;;;;;;;;;;;;;;30.15;20.65;101824.63;4962541;28;1230;-31
2022/10/21 11:39:50;;;;;;;;;;;;;;;30.19;20.92;101821.41;4965238;28;2183;-31
2022/10/21 11:42:27;;;;;;;;;;;;;;;30.25;21.19;101821.72;4974069;28;1152;-31
2022/10/21 11:44:52;;;;;;;;;;;;;;;30.26;21.57;101820.72;4979573;28;1910;-30
2022/10/21 11:47:29;;;;;;;;;;;;;;;30.23;21.59;101816.47;4979668;28;1094;-31
2022/10/21 11:50:13;;;;;;;;;;;;;;;29.98;21.42;101743.34;4960045;28;1040;-31
2022/10/21 11:52:57;;;;;;;;;;;;;;;30.50;21.94;101811.56;4979410;28;981;-32
2022/10/21 11:55:34;;;;;;;;;;;;;;;30.54;21.70;101803.91;4978944;28;1165;-31
2022/10/21 11:58:07;;;;;;;;;;;;;;;30.52;22.16;101798.66;4979279;28;1499;-33
2022/10/21 12:00:52;;;;;;;;;;;;;;;30.65;21.65;101797.19;4978634;28;1190;-31
2022/10/21 12:03:20;;;;;;;;;;;;;;;30.48;22.12;101791.06;4964475;28;1974;-31
2022/10/21 12:05:50;;;;;;;;;;;;;;;30.43;22.38;101787.00;4974382;28;954;-31
2022/10/21 12:08:18;;;;;;;;;;;;;;;30.45;22.51;101789.53;4983066;28;1916;-30
2022/10/21 12:10:55;;;;;;;;;;;;;;;30.49;22.56;101788.16;4962059;28;1093;-31
2022/10/21 12:13:21;;;;;;;;;;;;;;;30.49;22.40;101787.31;4962482;28;1067;-31
2022/10/21 12:15:48;;;;;;;;;;;;;;;30.47;22.50;101792.94;4979496;28;1423;-31
2022/10/21 12:18:14;;;;;;;;;;;;;;;30.49;22.61;101787.31;4980660;28;1164;-31
2022/10/21 12:20:39;;;;;;;;;;;;;;;30.60;22.53;101788.75;4964120;28;1213;-31
2022/10/21 12:23:05;;;;;;;;;;;;;;;30.46;22.92;101785.81;4961866;28;1454;-31
2022/10/21 12:25:48;;;;;;;;;;;;;;;30.65;22.67;101780.91;4949471;28;1902;-31
2022/10/21 12:28:24;;;;;;;;;;;;;;;30.25;21.93;101770.16;4971855;28;1111;-31
2022/10/21 12:30:49;;;;;;;;;;;;;;;30.57;22.38;101772.81;4976637;28;1253;-31
2022/10/21 12:33:28;;;;;;;;;;;;;;;30.62;22.34;101778.56;4975944;28;1079;-31
2022/10/21 12:35:55;;;;;;;;;;;;;;;30.65;22.55;101779.03;4979179;28;1150;-31
2022/10/21 12:38:21;;;;;;;;;;;;;;;30.63;22.54;101781.09;4985886;28;1824;-31
2022/10/21 12:40:47;;;;;;;;;;;;;;;30.71;22.60;101774.75;4981857;28;1211;-31
2022/10/21 12:43:15;;;;;;;;;;;;;;;30.66;22.63;101780.72;4978620;28;1902;-31
2022/10/21 12:45:40;;;;;;;;;;;;;;;30.76;22.47;101780.47;4978783;28;1276;-31
2022/10/21 12:48:06;;;;;;;;;;;;;;;30.53;22.84;101785.94;4961314;28;1257;-31
2022/10/21 12:50:32;;;;;;;;;;;;;;;30.38;23.02;101773.13;4949784;28;1209;-31
2022/10/21 12:53:06;;;;;;;;;;;;;;;30.25;23.22;101781.03;4958930;28;1230;-31
2022/10/21 12:55:39;;;;;;;;;;;;;;;30.26;23.18;101777.31;4976301;28;1119;-31
2022/10/21 12:58:04;;;;;;;;;;;;;;;29.97;23.79;101776.91;4962453;28;1197;-31